Aeroporto :







RITROVATECI SU...

 
LOGIN :

Iscrizione | Disclaimer

   EN    FR    IT 

 









Sommario :    VFR   VFR Marginale   IFR   IFR Intensivo   IFR Molto Intensivo
Visibilità : 
Base nubi : 
>= 8 km
>= 3000ft
5 / 8 km
1000 / 3000 ft
1500m / 5 km
500 / 1000 ft
800 / 1500m
200 / 500 ft
< 800m
< 200 ft
Simboli :   Temporali  Nebbia  Neve Forte  Precipitazioni Forti  Vento > 20 kt






- Altitudine del aeroporto : 1709 ft
- Codice IATA : YKL


CYKL - Schefferville

ULTIMO METAR :
  • 140846Z AUTO 27014G20KT 3SM -SN FEW006 BKN011 OVC016 M13/M15 A2977 RMK SLP128

METARs OBSOLETI :
  • 140837Z AUTO 27012G23KT 2 1/2SM -SN FEW006 BKN009 OVC017 M13/M15 A2977 RMK SLP128
  • 140817Z AUTO 28014G24KT 5SM -SN SCT009 M13/M15 A2976 RMK SLP126
  • 140800Z AUTO 28017G26KT 9SM -SN CLR M13/M16 A2976 RMK SLP123
  • 140731Z AUTO 28019G24KT 6SM -SN SCT008 M13/M16 A2975 RMK SLP120
  • 140710Z AUTO 27019G30KT 5SM -SN FEW008 M13/M16 A2974 RMK SLP119
  • 140700Z AUTO 27022G31KT 9SM CLR M13/M16 A2974 RMK SLP117
  • 140640Z AUTO 28024G31KT 9SM CLR M13/M16 A2973 RMK SLP115
  • 140600Z AUTO 27019G30KT 6SM -SN FEW008 M13/M16 A2972 RMK SLP110
  • 140551Z AUTO 28024G31KT 6SM -SN FEW017 M13/M15 A2971 RMK SLP107

TAF TAF CYKL
Valido dal 14 a 08 ore il 14 a 20 ore UTC


140738Z 1408/1420 28020G30KT P6SM SCT020
TEMPO 1408/1418 5SM -SN BLSN BKN020
FM141800 24015G25KT P6SM BKN030
TEMPO 1418/1420 2SM -SN BLSN RMK FCST BASED ON AUTO OBS. NXT FCST BY 141400Z



MetMap, La meteo Aeronautica in un colpo d'occhio ! - Copyright ORBIFLY Dicembre 2007 - Disclaimer

ORBIFLY MET'MAP TEAM :

Programmazione e sviluppo : Alexandra Zaïnal
Concezione e sviluppo : Baudouin d'Aumeries
Co-Programmazione e sviluppo : Marc-Olivier Méhu
Supporto tecnico e logistico : Manuel Goepfert
Aiuto per la traduzione : Arnaldo La Scala

Contatto : metmap@orbifly.com




FONTI E CREDITI :

   NOAA